Time;durP1;ratioP1;P1;durP2;ratioP2;P2;SDS_P1;SDS_P2;PMS_P1;PMS_P2;Temp;Humidity;BMP_temperature;BMP_pressure;BME280_temperature;BME280_humidity;BME280_pressure;Samples;Min_cycle;Max_cycle;Signal;HPM_P1;HPM_P2
2022/11/28 00:02:16;;;;;;;93.57;35.55;;;;;;;;;;4998675;28;20030;-91
2022/11/28 00:04:42;;;;;;;105.53;37.60;;;;;;;;;;4999472;28;20073;-90
2022/11/28 00:07:10;;;;;;;136.15;43.28;;;;;;;;;;4997734;28;20026;-91
2022/11/28 00:09:36;;;;;;;123.53;41.03;;;;;;;;;;4999478;28;20505;-94
2022/11/28 00:12:02;;;;;;;136.63;43.30;;;;;;;;;;5000379;28;20026;-90
2022/11/28 00:14:32;;;;;;;135.68;43.63;;;;;;;;;;5002814;28;20038;-95
2022/11/28 00:16:58;;;;;;;124.50;43.35;;;;;;;;;;5000641;28;20037;-91
2022/11/28 00:19:24;;;;;;;113.57;43.55;;;;;;;;;;5007255;28;20064;-91
2022/11/28 00:21:50;;;;;;;137.82;46.97;;;;;;;;;;5008992;28;20542;-91
2022/11/28 00:24:17;;;;;;;123.05;45.58;;;;;;;;;;5000840;28;20026;-92
2022/11/28 00:26:44;;;;;;;111.90;42.83;;;;;;;;;;4999231;28;20080;-95
2022/11/28 00:29:10;;;;;;;94.80;39.00;;;;;;;;;;4999146;28;20052;-93
2022/11/28 00:31:41;;;;;;;147.48;50.97;;;;;;;;;;4998175;28;20029;-93
2022/11/28 00:34:08;;;;;;;116.95;44.28;;;;;;;;;;4999037;28;20728;-92
2022/11/28 00:36:34;;;;;;;87.53;39.83;;;;;;;;;;4999567;28;20470;-91
2022/11/28 00:39:01;;;;;;;104.25;42.00;;;;;;;;;;4998406;28;20037;-91
2022/11/28 00:41:29;;;;;;;88.93;40.03;;;;;;;;;;4997768;28;20022;-95
2022/11/28 00:43:56;;;;;;;104.28;41.45;;;;;;;;;;4997903;28;20552;-93
2022/11/28 00:46:23;;;;;;;102.03;41.15;;;;;;;;;;4997896;28;20117;-92
2022/11/28 00:48:50;;;;;;;92.95;40.28;;;;;;;;;;4999212;28;20014;-94
2022/11/28 00:51:23;;;;;;;107.03;41.60;;;;;;;;;;4998288;28;20118;-93
2022/11/28 00:53:50;;;;;;;87.90;37.88;;;;;;;;;;4996504;28;20124;-94
2022/11/28 00:56:21;;;;;;;105.78;40.17;;;;;;;;;;4996312;28;20088;-93
2022/11/28 00:58:48;;;;;;;90.88;38.92;;;;;;;;;;4997059;28;20030;-94
2022/11/28 01:01:20;;;;;;;82.15;37.65;;;;;;;;;;4996545;28;20026;-93
2022/11/28 01:03:47;;;;;;;81.32;35.92;;;;;;;;;;4996683;28;20137;-93
2022/11/28 01:06:19;;;;;;;114.30;43.08;;;;;;;;;;4996661;28;20403;-93
2022/11/28 01:08:45;;;;;;;80.00;36.05;;;;;;;;;;4996567;28;20030;-93
2022/11/28 01:11:12;;;;;;;103.50;41.17;;;;;;;;;;4997104;28;20395;-94
2022/11/28 01:13:38;;;;;;;107.07;42.85;;;;;;;;;;4996801;28;20030;-91
2022/11/28 01:16:04;;;;;;;75.68;35.28;;;;;;;;;;4996342;28;20033;-93
2022/11/28 01:18:30;;;;;;;83.68;37.65;;;;;;;;;;4996904;28;20045;-95
2022/11/28 01:20:57;;;;;;;102.07;40.85;;;;;;;;;;5000463;28;20467;-95
2022/11/28 01:23:23;;;;;;;77.28;36.00;;;;;;;;;;5000243;28;20084;-94
2022/11/28 01:25:49;;;;;;;90.07;36.80;;;;;;;;;;4999910;28;20030;-93
2022/11/28 01:28:15;;;;;;;78.95;36.13;;;;;;;;;;5000016;28;20034;-93
2022/11/28 01:30:41;;;;;;;84.75;36.53;;;;;;;;;;5000004;28;20026;-93
2022/11/28 01:33:07;;;;;;;86.30;37.05;;;;;;;;;;4999649;28;20149;-92
2022/11/28 01:35:33;;;;;;;76.90;35.08;;;;;;;;;;5000276;28;20441;-94
2022/11/28 01:37:59;;;;;;;71.30;35.08;;;;;;;;;;4999988;28;20026;-94
2022/11/28 01:40:25;;;;;;;77.45;34.28;;;;;;;;;;4999971;28;20109;-95
2022/11/28 01:42:52;;;;;;;86.50;36.85;;;;;;;;;;4999943;28;20018;-91
2022/11/28 01:45:39;;;;;;;70.95;32.50;;;;;;;;;;4999713;28;20022;-93
2022/11/28 01:48:07;;;;;;;77.28;34.60;;;;;;;;;;4999855;28;20029;-94
2022/11/28 01:50:34;;;;;;;95.78;40.20;;;;;;;;;;4999649;28;20031;-93
2022/11/28 01:53:03;;;;;;;85.05;37.42;;;;;;;;;;5000023;28;20030;-93
2022/11/28 01:55:32;;;;;;;81.15;35.03;;;;;;;;;;5000272;28;20065;-92
2022/11/28 01:57:58;;;;;;;67.13;33.40;;;;;;;;;;4999835;28;20021;-94
2022/11/28 02:00:24;;;;;;;93.07;37.92;;;;;;;;;;4999959;28;20026;-93
2022/11/28 02:03:17;;;;;;;77.28;33.78;;;;;;;;;;4999171;28;20121;-92
2022/11/28 02:05:43;;;;;;;78.95;34.95;;;;;;;;;;4995335;28;20037;-93
2022/11/28 02:08:09;;;;;;;92.25;38.47;;;;;;;;;;4999198;28;20026;-95
2022/11/28 02:10:40;;;;;;;97.03;39.17;;;;;;;;;;4999255;28;20026;-92
2022/11/28 02:13:13;;;;;;;69.03;32.60;;;;;;;;;;4998836;28;20030;-93
2022/11/28 02:15:48;;;;;;;84.60;35.85;;;;;;;;;;4999205;28;20479;-92
2022/11/28 02:18:20;;;;;;;80.45;35.22;;;;;;;;;;4998800;28;20022;-93
2022/11/28 02:21:05;;;;;;;68.38;32.58;;;;;;;;;;4999033;28;20026;-92
2022/11/28 02:23:37;;;;;;;72.10;33.67;;;;;;;;;;4998815;28;20040;-93
2022/11/28 02:26:21;;;;;;;86.15;36.10;;;;;;;;;;4998782;28;20065;-94
2022/11/28 02:29:03;;;;;;;91.50;37.33;;;;;;;;;;4999232;28;20026;-95
2022/11/28 02:31:32;;;;;;;68.78;31.65;;;;;;;;;;4998457;28;20378;-91
2022/11/28 02:34:01;;;;;;;93.43;37.35;;;;;;;;;;4998662;28;20045;-95
2022/11/28 02:36:31;;;;;;;67.10;31.70;;;;;;;;;;4999222;28;20467;-92
2022/11/28 02:39:00;;;;;;;82.13;35.65;;;;;;;;;;5000054;28;20045;-92
2022/11/28 02:41:47;;;;;;;62.25;31.00;;;;;;;;;;4998745;28;20022;-93
2022/11/28 02:44:16;;;;;;;67.85;31.67;;;;;;;;;;4998728;28;20025;-92
2022/11/28 02:46:47;;;;;;;77.68;33.97;;;;;;;;;;4998677;28;20497;-90
2022/11/28 02:49:19;;;;;;;61.38;30.17;;;;;;;;;;4999067;28;20374;-93
2022/11/28 02:51:48;;;;;;;70.43;33.10;;;;;;;;;;4998694;28;20022;-93
2022/11/28 02:54:15;;;;;;;78.50;36.85;;;;;;;;;;4998090;28;20030;-92
2022/11/28 02:56:48;;;;;;;73.13;33.80;;;;;;;;;;4998429;28;20485;-93
2022/11/28 02:59:15;;;;;;;;;;;;;;;;;;4998559;28;20029;-93
2022/11/28 03:01:41;;;;;;;82.95;34.10;;;;;;;;;;4998005;28;19906;-92
2022/11/28 03:04:26;;;;;;;86.30;35.40;;;;;;;;;;4998065;28;20037;-91
2022/11/28 03:07:01;;;;;;;77.15;32.97;;;;;;;;;;5015719;28;20025;-91
2022/11/28 03:09:27;;;;;;;84.35;36.05;;;;;;;;;;4997928;28;20022;-93
2022/11/28 03:11:56;;;;;;;61.10;30.58;;;;;;;;;;4998742;28;20533;-93
2022/11/28 03:14:22;;;;;;;89.22;38.38;;;;;;;;;;4997749;28;20073;-93
2022/11/28 03:17:01;;;;;;;65.25;32.45;;;;;;;;;;4998578;28;20024;-93
2022/11/28 03:19:32;;;;;;;69.43;33.70;;;;;;;;;;4998525;28;20026;-96
2022/11/28 03:22:17;;;;;;;67.70;32.38;;;;;;;;;;4998031;28;20028;-93
2022/11/28 03:25:09;;;;;;;67.70;31.73;;;;;;;;;;4997830;28;20026;-94
2022/11/28 03:27:43;;;;;;;68.45;33.13;;;;;;;;;;4993303;28;20092;-93
2022/11/28 03:30:25;;;;;;;68.00;32.28;;;;;;;;;;4998784;28;20029;-92
2022/11/28 03:32:53;;;;;;;81.97;34.95;;;;;;;;;;4997285;28;20042;-92
2022/11/28 03:35:21;;;;;;;75.68;34.55;;;;;;;;;;4997508;28;20360;-92
2022/11/28 03:37:49;;;;;;;67.25;33.08;;;;;;;;;;4997594;28;20033;-92
2022/11/28 03:40:19;;;;;;;66.75;32.00;;;;;;;;;;4999582;28;20026;-92
2022/11/28 03:42:49;;;;;;;56.05;28.23;;;;;;;;;;5006409;28;20120;-90
2022/11/28 03:45:19;;;;;;;70.70;34.38;;;;;;;;;;5011227;28;20471;-91
2022/11/28 03:47:47;;;;;;;74.70;32.47;;;;;;;;;;4999525;28;20096;-93
2022/11/28 03:50:20;;;;;;;66.28;30.42;;;;;;;;;;4999200;28;20057;-92
2022/11/28 03:52:51;;;;;;;63.75;30.27;;;;;;;;;;4997817;28;20025;-93
2022/11/28 03:55:27;;;;;;;57.95;29.33;;;;;;;;;;4997417;28;20034;-92
2022/11/28 03:58:04;;;;;;;64.00;29.50;;;;;;;;;;4998300;28;20030;-92
2022/11/28 04:00:32;;;;;;;61.78;30.58;;;;;;;;;;4997162;28;20030;-93
2022/11/28 04:03:15;;;;;;;65.50;31.48;;;;;;;;;;5014991;28;20057;-91
2022/11/28 04:05:46;;;;;;;51.85;26.50;;;;;;;;;;4997046;28;20106;-92
2022/11/28 04:08:20;;;;;;;54.25;27.70;;;;;;;;;;4997828;28;20022;-94
2022/11/28 04:10:46;;;;;;;53.25;26.95;;;;;;;;;;4997052;28;20033;-93
2022/11/28 04:13:19;;;;;;;66.35;30.48;;;;;;;;;;4997339;28;20037;-93
2022/11/28 04:15:51;;;;;;;51.90;25.88;;;;;;;;;;4997418;28;20494;-93
2022/11/28 04:18:30;;;;;;;56.92;27.73;;;;;;;;;;4997055;28;20022;-93
2022/11/28 04:21:12;;;;;;;65.75;29.67;;;;;;;;;;4997709;28;20168;-91
2022/11/28 04:23:39;;;;;;;53.10;26.65;;;;;;;;;;4997180;28;20026;-93
2022/11/28 04:26:29;;;;;;;54.58;26.45;;;;;;;;;;4997441;28;20087;-92
2022/11/28 04:28:56;;;;;;;58.58;26.48;;;;;;;;;;4984838;28;20092;-92
2022/11/28 04:31:23;;;;;;;59.45;28.50;;;;;;;;;;4997148;28;20072;-95
2022/11/28 04:33:51;;;;;;;56.88;26.35;;;;;;;;;;4996404;28;20060;-91
2022/11/28 04:36:18;;;;;;;52.85;25.42;;;;;;;;;;4996684;28;20160;-93
2022/11/28 04:38:53;;;;;;;60.08;28.27;;;;;;;;;;4996672;28;20033;-92
2022/11/28 04:41:22;;;;;;;56.08;26.85;;;;;;;;;;4996826;28;20077;-92
2022/11/28 04:43:51;;;;;;;54.95;26.33;;;;;;;;;;4996491;28;20052;-92
2022/11/28 04:46:20;;;;;;;57.47;26.52;;;;;;;;;;4996694;28;20037;-91
2022/11/28 04:48:46;;;;;;;57.78;25.92;;;;;;;;;;4996870;28;20105;-93
2022/11/28 04:51:30;;;;;;;59.53;26.58;;;;;;;;;;4996581;28;20040;-92
2022/11/28 04:54:18;;;;;;;61.15;28.10;;;;;;;;;;4998400;28;20034;-92
2022/11/28 04:56:51;;;;;;;59.58;26.83;;;;;;;;;;5000284;28;20041;-93
2022/11/28 04:59:19;;;;;;;61.22;26.73;;;;;;;;;;5000387;28;20032;-92
2022/11/28 05:01:46;;;;;;;64.70;28.83;;;;;;;;;;5000037;28;20083;-92
2022/11/28 05:04:13;;;;;;;50.38;24.65;;;;;;;;;;5000556;28;20467;-91
2022/11/28 05:06:39;;;;;;;55.17;26.10;;;;;;;;;;5000695;28;20471;-92
2022/11/28 05:09:05;;;;;;;57.67;27.67;;;;;;;;;;5000297;28;20034;-93
2022/11/28 05:11:31;;;;;;;51.70;25.70;;;;;;;;;;5000716;28;20049;-92
2022/11/28 05:13:58;;;;;;;49.47;23.77;;;;;;;;;;5000010;28;20041;-92
2022/11/28 05:16:24;;;;;;;56.95;25.98;;;;;;;;;;5001006;28;20030;-92
2022/11/28 05:18:50;;;;;;;54.33;25.50;;;;;;;;;;4983830;28;20030;-94
2022/11/28 05:21:16;;;;;;;50.95;25.08;;;;;;;;;;5002091;28;20034;-91
2022/11/28 05:23:43;;;;;;;51.22;25.38;;;;;;;;;;5001863;28;20475;-92
2022/11/28 05:26:14;;;;;;;52.83;24.58;;;;;;;;;;5001470;28;20147;-91
2022/11/28 05:28:42;;;;;;;55.53;27.33;;;;;;;;;;5000076;28;20037;-92
2022/11/28 05:31:08;;;;;;;52.63;25.52;;;;;;;;;;5000009;28;20030;-92
2022/11/28 05:33:34;;;;;;;51.83;25.60;;;;;;;;;;5000069;28;20505;-93
2022/11/28 05:36:04;;;;;;;52.80;25.05;;;;;;;;;;4999843;28;20018;-93
2022/11/28 05:38:31;;;;;;;57.13;26.10;;;;;;;;;;5000317;28;20069;-92
2022/11/28 05:40:58;;;;;;;51.10;23.90;;;;;;;;;;4999964;28;20080;-94
2022/11/28 05:43:24;;;;;;;47.65;24.30;;;;;;;;;;5000371;28;20037;-93
2022/11/28 05:45:50;;;;;;;51.60;25.25;;;;;;;;;;4999796;28;20025;-91
2022/11/28 05:48:17;;;;;;;54.95;25.45;;;;;;;;;;5000888;28;20030;-94
2022/11/28 05:50:43;;;;;;;55.60;25.83;;;;;;;;;;4999758;28;20036;-91
2022/11/28 05:53:10;;;;;;;46.75;24.25;;;;;;;;;;4999667;28;20042;-92
2022/11/28 05:55:40;;;;;;;55.97;26.15;;;;;;;;;;4999356;28;20030;-90
2022/11/28 05:58:06;;;;;;;53.22;25.23;;;;;;;;;;4999347;28;20033;-92
2022/11/28 06:00:32;;;;;;;53.08;24.92;;;;;;;;;;4999226;28;20033;-91
2022/11/28 06:02:58;;;;;;;55.67;25.50;;;;;;;;;;4999403;28;20116;-91
2022/11/28 06:05:25;;;;;;;48.90;24.23;;;;;;;;;;4998744;28;20033;-91
2022/11/28 06:07:51;;;;;;;50.50;24.30;;;;;;;;;;4999129;28;20026;-91
2022/11/28 06:10:18;;;;;;;53.22;24.65;;;;;;;;;;4999334;28;20471;-92
2022/11/28 06:12:44;;;;;;;54.42;23.75;;;;;;;;;;4999779;28;20061;-91
2022/11/28 06:15:10;;;;;;;56.88;25.40;;;;;;;;;;4998936;28;20034;-93
2022/11/28 06:17:36;;;;;;;52.40;24.45;;;;;;;;;;4999232;28;20026;-93
2022/11/28 06:20:03;;;;;;;49.70;23.92;;;;;;;;;;4999579;28;20498;-92
2022/11/28 06:22:29;;;;;;;55.60;25.13;;;;;;;;;;4998995;28;20042;-93
2022/11/28 06:24:56;;;;;;;63.22;26.73;;;;;;;;;;4999376;28;20018;-91
2022/11/28 06:27:22;;;;;;;56.83;27.77;;;;;;;;;;4999088;28;20388;-91
2022/11/28 06:29:48;;;;;;;60.80;26.80;;;;;;;;;;4999234;28;20030;-91
2022/11/28 06:32:14;;;;;;;54.42;25.52;;;;;;;;;;4998729;28;20830;-93
2022/11/28 06:34:40;;;;;;;46.88;22.70;;;;;;;;;;4998479;28;20049;-93
2022/11/28 06:37:06;;;;;;;53.15;25.55;;;;;;;;;;5000574;28;20065;-90
2022/11/28 06:39:41;;;;;;;56.10;25.50;;;;;;;;;;5002874;28;20030;-92
2022/11/28 06:42:07;;;;;;;48.40;22.67;;;;;;;;;;5020395;28;20025;-89
2022/11/28 06:44:36;;;;;;;52.03;24.25;;;;;;;;;;5010099;28;20053;-89
2022/11/28 06:47:05;;;;;;;58.95;24.95;;;;;;;;;;5012910;28;20052;-90
2022/11/28 06:49:31;;;;;;;49.95;23.88;;;;;;;;;;5017787;28;20175;-89
2022/11/28 06:51:57;;;;;;;53.05;24.73;;;;;;;;;;5018856;28;20458;-89
2022/11/28 06:54:26;;;;;;;53.35;24.02;;;;;;;;;;5018708;28;20046;-90
2022/11/28 06:56:52;;;;;;;48.65;24.13;;;;;;;;;;5015400;28;20426;-90
2022/11/28 06:59:18;;;;;;;43.03;22.52;;;;;;;;;;5015335;28;20076;-89
2022/11/28 07:01:45;;;;;;;56.63;25.83;;;;;;;;;;5011110;28;20380;-84
2022/11/28 07:04:11;;;;;;;53.70;24.40;;;;;;;;;;5003119;28;20092;-88
2022/11/28 07:06:37;;;;;;;50.53;24.70;;;;;;;;;;5000471;28;20040;-89
2022/11/28 07:09:03;;;;;;;51.72;24.70;;;;;;;;;;4999217;28;20029;-90
2022/11/28 07:11:30;;;;;;;52.33;25.00;;;;;;;;;;4999628;28;20048;-90
2022/11/28 07:14:00;;;;;;;39.80;21.23;;;;;;;;;;4998803;28;20060;-93
2022/11/28 07:16:33;;;;;;;41.22;21.60;;;;;;;;;;5000640;28;20133;-92
2022/11/28 07:18:59;;;;;;;49.83;22.27;;;;;;;;;;4999268;28;20030;-91
2022/11/28 07:21:35;;;;;;;43.72;21.67;;;;;;;;;;5016223;28;20017;-92
2022/11/28 07:24:01;;;;;;;43.13;21.60;;;;;;;;;;4997480;28;20045;-90
2022/11/28 07:26:37;;;;;;;41.25;20.98;;;;;;;;;;4999474;28;20112;-95
2022/11/28 07:29:16;;;;;;;44.95;21.50;;;;;;;;;;5000568;28;20062;-93
2022/11/28 07:31:43;;;;;;;48.00;22.00;;;;;;;;;;4998046;28;20080;-90
2022/11/28 07:34:13;;;;;;;40.92;21.13;;;;;;;;;;4998859;28;20065;-92
2022/11/28 07:36:39;;;;;;;48.17;22.60;;;;;;;;;;4999226;28;20100;-89
2022/11/28 07:39:11;;;;;;;45.95;21.92;;;;;;;;;;4997993;28;20164;-92
2022/11/28 07:41:37;;;;;;;46.25;21.98;;;;;;;;;;5001217;28;20037;-90
2022/11/28 07:44:04;;;;;;;44.55;22.42;;;;;;;;;;4997737;28;20030;-91
2022/11/28 07:46:49;;;;;;;47.28;22.45;;;;;;;;;;5012924;28;20048;-92
2022/11/28 07:49:18;;;;;;;42.13;20.75;;;;;;;;;;5017458;28;20108;-92
2022/11/28 07:51:49;;;;;;;46.13;22.65;;;;;;;;;;5016315;28;20033;-91
2022/11/28 07:54:24;;;;;;;47.20;21.38;;;;;;;;;;5016393;28;20065;-87
2022/11/28 07:57:08;;;;;;;42.97;21.50;;;;;;;;;;5021006;28;20044;-94
2022/11/28 07:59:35;;;;;;;47.17;21.92;;;;;;;;;;5024825;28;20051;-94
2022/11/28 08:02:01;;;;;;;42.33;21.35;;;;;;;;;;5026245;28;20494;-94
2022/11/28 15:38:35;;;;;;;46.20;23.13;;;;;;;;;;5023912;28;20506;-92
2022/11/28 15:41:38;;;;;;;44.45;23.75;;;;;;;;;;5111584;27;20381;-90
2022/11/28 15:44:04;;;;;;;44.85;24.50;;;;;;;;;;5110769;28;20085;-91
2022/11/28 15:46:32;;;;;;;48.50;25.88;;;;;;;;;;5111072;28;20028;-90
2022/11/28 15:49:00;;;;;;;44.40;24.92;;;;;;;;;;5110959;28;20564;-89
2022/11/28 15:51:29;;;;;;;48.05;26.77;;;;;;;;;;5112342;28;20077;-90
2022/11/28 15:53:56;;;;;;;49.95;26.70;;;;;;;;;;5110639;28;20507;-90
2022/11/28 15:56:22;;;;;;;46.80;25.35;;;;;;;;;;5110741;28;20016;-91
2022/11/28 15:58:50;;;;;;;41.70;23.35;;;;;;;;;;5110800;28;20032;-89
2022/11/28 16:01:20;;;;;;;43.78;23.52;;;;;;;;;;5110431;28;20078;-89
2022/11/28 16:03:53;;;;;;;46.10;23.25;;;;;;;;;;5111287;28;20039;-90
2022/11/28 16:06:19;;;;;;;42.55;24.38;;;;;;;;;;5110319;28;20059;-90
2022/11/28 16:08:48;;;;;;;48.25;23.60;;;;;;;;;;5110333;28;20024;-90
2022/11/28 16:11:17;;;;;;;50.78;24.27;;;;;;;;;;5111503;28;20115;-88
2022/11/28 16:13:44;;;;;;;46.15;25.00;;;;;;;;;;5110677;28;20408;-88
2022/11/28 16:16:12;;;;;;;48.03;25.02;;;;;;;;;;5110125;28;20460;-90
2022/11/28 16:18:42;;;;;;;50.92;26.98;;;;;;;;;;5110076;28;20028;-88
2022/11/28 16:21:11;;;;;;;50.95;25.17;;;;;;;;;;5110169;28;20040;-90
2022/11/28 16:23:37;;;;;;;48.80;25.35;;;;;;;;;;5110077;28;20024;-91
2022/11/28 16:26:22;;;;;;;49.35;25.98;;;;;;;;;;5110131;28;20024;-89
2022/11/28 16:29:00;;;;;;;56.58;26.60;;;;;;;;;;5110215;28;20112;-90
2022/11/28 16:31:28;;;;;;;53.20;25.48;;;;;;;;;;5110243;28;20028;-90
2022/11/28 16:33:54;;;;;;;51.17;25.08;;;;;;;;;;5110146;28;20067;-89
2022/11/28 16:36:23;;;;;;;47.10;24.77;;;;;;;;;;5109664;28;20525;-88
2022/11/28 16:38:50;;;;;;;46.15;25.05;;;;;;;;;;5110058;28;20074;-92
2022/11/28 16:41:19;;;;;;;48.72;25.10;;;;;;;;;;5109856;28;20052;-89
2022/11/28 16:43:52;;;;;;;51.85;25.60;;;;;;;;;;5110054;28;20028;-91
2022/11/28 16:46:25;;;;;;;56.45;25.55;;;;;;;;;;5106984;28;20114;-91
2022/11/28 16:48:58;;;;;;;51.65;27.10;;;;;;;;;;5109690;28;20115;-91
2022/11/28 16:51:29;;;;;;;54.80;26.65;;;;;;;;;;5105076;28;20524;-92
2022/11/28 16:53:58;;;;;;;52.83;27.40;;;;;;;;;;5096415;28;20032;-89
2022/11/28 16:56:43;;;;;;;51.55;26.77;;;;;;;;;;5096192;28;20020;-91
2022/11/28 16:59:12;;;;;;;55.00;25.90;;;;;;;;;;5095541;28;20564;-90
2022/11/28 17:01:39;;;;;;;48.42;25.77;;;;;;;;;;5096123;28;20496;-92
2022/11/28 17:04:05;;;;;;;57.65;27.27;;;;;;;;;;5095708;28;20024;-93
2022/11/28 17:10:24;;;;;;;49.53;25.80;;;;;;;;;;5054472;28;20136;-93
2022/11/28 17:12:50;;;;;;;52.15;25.90;;;;;;;;;;5058399;28;20089;-89
2022/11/28 17:15:22;;;;;;;55.90;26.83;;;;;;;;;;5097668;28;20542;-93
2022/11/28 17:17:48;;;;;;;54.53;27.27;;;;;;;;;;5096683;28;20422;-90
2022/11/28 17:20:16;;;;;;;48.90;25.83;;;;;;;;;;5096011;28;20032;-90
2022/11/28 17:22:43;;;;;;;51.13;27.88;;;;;;;;;;5095026;28;20421;-89
2022/11/28 17:25:14;;;;;;;52.22;27.45;;;;;;;;;;5095544;28;20028;-89
2022/11/28 17:27:41;;;;;;;59.63;29.98;;;;;;;;;;5096227;28;20111;-88
2022/11/28 17:30:07;;;;;;;56.60;28.80;;;;;;;;;;5095092;28;20031;-88
2022/11/28 17:32:33;;;;;;;57.15;28.48;;;;;;;;;;5094708;28;20028;-88
2022/11/28 17:35:02;;;;;;;56.78;29.00;;;;;;;;;;5095912;28;20028;-91
2022/11/28 17:37:29;;;;;;;53.08;28.92;;;;;;;;;;5095505;28;20028;-92
2022/11/28 17:42:40;;;;;;;58.67;30.30;;;;;;;;;;5096518;28;20039;-89
2022/11/28 17:45:12;;;;;;;54.50;28.05;;;;;;;;;;5095947;28;20128;-86
2022/11/28 17:47:38;;;;;;;57.90;27.50;;;;;;;;;;5098805;28;20023;-90
2022/11/28 17:50:05;;;;;;;50.65;26.27;;;;;;;;;;5101701;28;20035;-88
2022/11/28 17:52:31;;;;;;;49.33;26.27;;;;;;;;;;5095358;28;20495;-93
2022/11/28 17:55:02;;;;;;;55.58;29.00;;;;;;;;;;5095435;28;20047;-91
2022/11/28 17:57:29;;;;;;;60.42;29.77;;;;;;;;;;5094875;28;20361;-94
2022/11/28 18:05:35;;;;;;;52.08;27.50;;;;;;;;;;5028193;28;20290;-95
2022/11/28 18:08:01;;;;;;;53.97;26.52;;;;;;;;;;5142758;23;20069;-93
2022/11/28 18:10:27;;;;;;;56.78;29.23;;;;;;;;;;4999960;28;20050;-90
2022/11/28 18:12:55;;;;;;;52.83;28.58;;;;;;;;;;4997068;28;20038;-89
2022/11/28 18:15:21;;;;;;;56.78;29.42;;;;;;;;;;4995284;28;20495;-92
2022/11/28 18:17:47;;;;;;;57.15;28.52;;;;;;;;;;4994638;28;20034;-92
2022/11/28 18:20:13;;;;;;;58.78;29.40;;;;;;;;;;4994406;28;20034;-92
2022/11/28 18:22:39;;;;;;;53.63;29.05;;;;;;;;;;4994923;28;20113;-91
2022/11/28 18:25:07;;;;;;;56.47;28.83;;;;;;;;;;4995000;28;20034;-93
2022/11/28 18:27:33;;;;;;;55.00;27.45;;;;;;;;;;4994700;28;20038;-91
2022/11/28 18:29:59;;;;;;;64.18;29.08;;;;;;;;;;4994624;28;20161;-90
2022/11/28 18:32:25;;;;;;;56.47;29.58;;;;;;;;;;4994419;28;20034;-93
2022/11/28 18:35:18;;;;;;;59.08;29.02;;;;;;;;;;4996394;28;20026;-96
2022/11/28 18:37:44;;;;;;;56.00;29.05;;;;;;;;;;4995395;28;20037;-90
2022/11/28 18:40:11;;;;;;;56.45;30.00;;;;;;;;;;4994417;28;20041;-91
2022/11/28 18:42:37;;;;;;;58.72;31.02;;;;;;;;;;4995119;28;20069;-91
2022/11/28 18:45:04;;;;;;;60.40;30.13;;;;;;;;;;4994652;28;20391;-92
2022/11/28 18:47:30;;;;;;;61.30;30.85;;;;;;;;;;4994639;28;20026;-92
2022/11/28 18:49:56;;;;;;;60.97;30.20;;;;;;;;;;4994276;28;20057;-93
2022/11/28 18:52:22;;;;;;;61.05;30.45;;;;;;;;;;5005441;28;20430;-89
2022/11/28 18:54:48;;;;;;;57.28;30.08;;;;;;;;;;5014767;28;20049;-92
2022/11/28 18:57:14;;;;;;;59.13;29.00;;;;;;;;;;5014121;28;20532;-91
2022/11/28 18:59:41;;;;;;;60.13;29.30;;;;;;;;;;5009797;28;20030;-90
2022/11/28 19:02:07;;;;;;;61.58;28.23;;;;;;;;;;4994085;28;20030;-90
2022/11/28 19:04:33;;;;;;;59.50;28.40;;;;;;;;;;4993758;28;20543;-89
2022/11/28 19:07:00;;;;;;;57.20;28.52;;;;;;;;;;4993319;28;20046;-90
2022/11/28 19:09:26;;;;;;;56.95;27.48;;;;;;;;;;4993364;28;20023;-89
2022/11/28 19:11:53;;;;;;;53.45;27.20;;;;;;;;;;4995305;28;20052;-90
2022/11/28 19:14:21;;;;;;;55.13;27.67;;;;;;;;;;4993273;28;20062;-89
2022/11/28 19:16:48;;;;;;;58.17;28.33;;;;;;;;;;4993828;28;20030;-89
2022/11/28 19:19:14;;;;;;;55.03;27.67;;;;;;;;;;4993593;28;20054;-89
2022/11/28 19:21:42;;;;;;;56.40;29.23;;;;;;;;;;4994647;28;20030;-90
2022/11/28 19:24:08;;;;;;;55.15;27.63;;;;;;;;;;4993852;28;20456;-90
2022/11/28 19:26:34;;;;;;;52.25;27.73;;;;;;;;;;4993341;28;20035;-91
2022/11/28 19:29:01;;;;;;;55.53;28.65;;;;;;;;;;4993098;28;20035;-88
2022/11/28 19:31:29;;;;;;;56.28;27.75;;;;;;;;;;4994508;28;20022;-89
2022/11/28 19:34:03;;;;;;;59.38;28.63;;;;;;;;;;4993437;28;20030;-88
2022/11/28 19:36:29;;;;;;;;;;;;;;;;;;4993784;28;20471;-89
2022/11/28 19:38:56;;;;;;;56.72;27.27;;;;;;;;;;4993296;28;20001;-89
2022/11/28 19:41:22;;;;;;;55.25;27.80;;;;;;;;;;4993708;28;20065;-89
2022/11/28 19:43:50;;;;;;;61.65;29.35;;;;;;;;;;4993665;28;20046;-88
2022/11/28 19:46:16;;;;;;;52.13;27.02;;;;;;;;;;4994744;28;20109;-89
2022/11/28 19:48:43;;;;;;;61.00;29.38;;;;;;;;;;4993553;28;20486;-88
2022/11/28 19:51:11;;;;;;;60.65;30.50;;;;;;;;;;4993834;28;20113;-92
2022/11/28 19:53:38;;;;;;;58.45;28.77;;;;;;;;;;4994017;28;20480;-92
2022/11/28 19:56:12;;;;;;;63.15;29.88;;;;;;;;;;4993581;28;20035;-88
2022/11/28 19:58:38;;;;;;;66.45;30.35;;;;;;;;;;5008009;28;20034;-92
2022/11/28 20:01:06;;;;;;;59.33;30.38;;;;;;;;;;5013461;28;20046;-90
2022/11/28 20:03:33;;;;;;;67.53;30.48;;;;;;;;;;5013200;28;20030;-91
2022/11/28 20:06:08;;;;;;;64.38;32.05;;;;;;;;;;5014476;28;20360;-94
2022/11/28 20:08:35;;;;;;;66.93;31.42;;;;;;;;;;5010899;28;20113;-91
2022/11/28 20:11:11;;;;;;;62.90;31.67;;;;;;;;;;4993092;28;20049;-90
2022/11/28 20:13:37;;;;;;;72.50;33.67;;;;;;;;;;4993402;28;20081;-91
2022/11/28 20:16:04;;;;;;;62.60;31.70;;;;;;;;;;4993356;28;20025;-91
2022/11/28 20:18:32;;;;;;;63.92;32.58;;;;;;;;;;4993648;28;20033;-91
2022/11/28 20:21:09;;;;;;;62.45;32.92;;;;;;;;;;4993362;28;20046;-92
2022/11/28 20:23:42;;;;;;;71.95;34.00;;;;;;;;;;4993655;28;20045;-92
2022/11/28 20:26:09;;;;;;;71.03;33.63;;;;;;;;;;4993270;28;20034;-90
2022/11/28 20:35:10;;;;;;;64.97;31.50;;;;;;;;;;4960396;29;20361;-94
2022/11/28 20:37:38;;;;;;;62.75;31.08;;;;;;;;;;4955739;29;20036;-93
2022/11/28 20:40:04;;;;;;;65.18;32.58;;;;;;;;;;4990070;28;20120;-90
2022/11/28 20:42:30;;;;;;;65.15;32.45;;;;;;;;;;4997388;28;20030;-92
2022/11/28 20:44:56;;;;;;;65.30;32.55;;;;;;;;;;4997659;28;20045;-91
2022/11/28 20:47:23;;;;;;;67.72;33.28;;;;;;;;;;4997110;28;20058;-91
2022/11/28 20:49:49;;;;;;;64.65;31.63;;;;;;;;;;4996960;28;20037;-89
2022/11/28 20:52:15;;;;;;;58.45;31.10;;;;;;;;;;4996612;28;20026;-90
2022/11/28 20:54:41;;;;;;;63.22;31.50;;;;;;;;;;4996666;28;20031;-90
2022/11/28 20:57:07;;;;;;;62.15;32.80;;;;;;;;;;4996535;28;20035;-89
2022/11/28 20:59:33;;;;;;;58.33;31.52;;;;;;;;;;4996138;28;20027;-90
2022/11/28 21:02:00;;;;;;;67.80;31.98;;;;;;;;;;4996169;28;20038;-88
2022/11/28 21:04:26;;;;;;;59.40;30.15;;;;;;;;;;4996216;28;20019;-89
2022/11/28 21:06:52;;;;;;;58.63;30.65;;;;;;;;;;4995589;28;20050;-89
2022/11/28 21:09:19;;;;;;;64.05;30.23;;;;;;;;;;4996139;28;20042;-90
2022/11/28 21:11:46;;;;;;;60.30;31.08;;;;;;;;;;4999396;28;20050;-87
2022/11/28 21:14:14;;;;;;;61.90;30.70;;;;;;;;;;5002106;28;20030;-89
2022/11/28 21:16:40;;;;;;;60.92;30.20;;;;;;;;;;4996561;28;20026;-89
2022/11/28 21:19:08;;;;;;;58.75;30.60;;;;;;;;;;4995905;28;20030;-89
2022/11/28 21:21:34;;;;;;;57.35;30.88;;;;;;;;;;4996198;28;20042;-91
2022/11/28 21:24:02;;;;;;;56.83;29.40;;;;;;;;;;4995880;28;20034;-91
2022/11/28 21:26:29;;;;;;;53.95;28.75;;;;;;;;;;4996819;28;20056;-91
2022/11/28 21:28:56;;;;;;;54.47;29.60;;;;;;;;;;5001622;28;20022;-89
2022/11/28 21:31:24;;;;;;;63.88;32.28;;;;;;;;;;5000007;28;20030;-92
2022/11/28 21:33:50;;;;;;;58.33;31.30;;;;;;;;;;4995937;28;20030;-92
2022/11/28 21:36:17;;;;;;;56.22;29.50;;;;;;;;;;4995975;28;20022;-92
2022/11/28 21:38:43;;;;;;;58.92;29.60;;;;;;;;;;4995857;28;20165;-91
2022/11/28 21:41:09;;;;;;;59.28;30.98;;;;;;;;;;4995681;28;20034;-90
2022/11/28 21:43:35;;;;;;;51.72;29.63;;;;;;;;;;4995487;28;20183;-91
2022/11/28 21:46:02;;;;;;;52.58;28.30;;;;;;;;;;4995452;28;20030;-91
2022/11/28 21:48:29;;;;;;;47.67;26.27;;;;;;;;;;4995622;28;20026;-90
2022/11/28 21:50:56;;;;;;;51.75;27.60;;;;;;;;;;4995322;28;20125;-90
2022/11/28 21:53:22;;;;;;;50.15;26.58;;;;;;;;;;4995554;28;20026;-91
2022/11/28 21:55:49;;;;;;;47.50;25.95;;;;;;;;;;4995573;28;20026;-91
2022/11/28 21:58:15;;;;;;;46.45;25.73;;;;;;;;;;4995171;28;20030;-91
2022/11/28 22:00:41;;;;;;;44.80;24.40;;;;;;;;;;4995123;28;20038;-92
2022/11/28 22:03:07;;;;;;;47.05;25.23;;;;;;;;;;4995170;28;20041;-91
2022/11/28 22:05:33;;;;;;;46.28;25.17;;;;;;;;;;4995247;28;20117;-91
2022/11/28 22:08:00;;;;;;;43.75;24.85;;;;;;;;;;4995125;28;20038;-92
2022/11/28 22:10:26;;;;;;;42.35;25.15;;;;;;;;;;4995611;28;20414;-91
2022/11/28 22:12:52;;;;;;;45.08;24.70;;;;;;;;;;4996035;28;20018;-92
2022/11/28 22:15:19;;;;;;;45.58;24.65;;;;;;;;;;4995707;28;20031;-92
2022/11/28 22:17:45;;;;;;;42.15;24.85;;;;;;;;;;4995026;28;20022;-92
2022/11/28 22:20:11;;;;;;;40.95;24.20;;;;;;;;;;4995111;28;20031;-92